createdAt,value
2023-03-29T04:24:42.319Z,0.00
2023-03-29T04:25:45.194Z,0.00
2023-03-29T04:26:42.851Z,0.00
2023-03-29T04:27:43.118Z,16.00
2023-03-29T04:28:43.397Z,16.00
2023-03-29T04:29:43.688Z,16.00
2023-03-29T04:30:43.987Z,16.00
2023-03-29T04:31:44.348Z,16.00
2023-03-29T04:32:44.669Z,16.00
2023-03-29T04:33:44.860Z,16.00
2023-03-29T04:34:45.106Z,16.00
2023-03-29T04:35:45.395Z,16.00
2023-03-29T04:36:45.673Z,16.00
2023-03-29T04:37:45.957Z,16.00
2023-03-29T04:38:47.685Z,16.00
2023-03-29T04:39:46.542Z,16.00
2023-03-29T04:40:46.918Z,16.00
2023-03-29T04:41:47.073Z,16.00
2023-03-29T04:42:47.363Z,16.00
2023-03-29T04:43:47.650Z,16.00
2023-03-29T04:44:48.093Z,20.00
2023-03-29T04:45:48.189Z,16.00
2023-03-29T04:46:48.543Z,16.00
2023-03-29T04:47:48.875Z,16.00
2023-03-29T04:48:49.093Z,16.00
2023-03-29T04:49:49.371Z,20.00
2023-03-29T04:50:49.674Z,16.00
2023-03-29T04:51:50.000Z,16.00
2023-03-29T04:52:50.281Z,16.00
2023-03-29T04:53:50.713Z,16.00
2023-03-29T04:54:50.840Z,16.00
2023-03-29T04:55:51.120Z,16.00
2023-03-29T04:56:51.421Z,16.00
2023-03-29T04:57:51.728Z,20.00
2023-03-29T04:59:00.687Z,16.00
2023-03-29T04:59:52.355Z,16.00
2023-03-29T05:00:52.724Z,20.00
2023-03-29T05:01:53.032Z,20.00
2023-03-29T05:02:53.243Z,4.00
2023-03-29T05:03:53.503Z,8.00
2023-03-29T05:04:53.855Z,12.00
2023-03-29T05:05:54.312Z,8.00
2023-03-29T05:06:54.558Z,8.00
2023-03-29T05:07:54.730Z,16.00
2023-03-29T05:08:55.015Z,12.00
2023-03-29T05:09:55.302Z,16.00
2023-03-29T05:10:55.655Z,20.00
2023-03-29T05:11:55.944Z,20.00
2023-03-29T05:12:56.252Z,24.00
2023-03-29T05:14:03.557Z,28.00
2023-03-29T05:14:56.772Z,32.00
2023-03-29T05:15:57.191Z,36.00
2023-03-29T05:16:57.332Z,44.00
2023-03-29T05:17:57.840Z,44.00
2023-03-29T05:18:58.267Z,52.00
2023-03-29T05:19:58.161Z,56.00
2023-03-29T05:20:58.410Z,60.00
2023-03-29T05:21:58.685Z,64.00
2023-03-29T05:22:58.960Z,72.00
2023-03-29T05:23:59.264Z,72.00
2023-03-29T05:24:59.518Z,80.00
2023-03-29T05:25:59.796Z,88.00
2023-03-29T05:27:00.082Z,88.00
2023-03-29T05:28:00.349Z,100.00
2023-03-29T05:29:09.277Z,108.00
2023-03-29T05:30:00.994Z,116.00
2023-03-29T05:31:01.678Z,124.00
2023-03-29T05:32:01.569Z,128.00
2023-03-29T05:33:01.909Z,132.00
2023-03-29T05:34:02.200Z,136.00
2023-03-29T05:35:02.512Z,140.00
2023-03-29T05:36:02.874Z,152.00
2023-03-29T05:37:03.172Z,160.00
2023-03-29T05:38:03.412Z,168.00
2023-03-29T05:39:03.734Z,176.00
2023-03-29T05:40:05.989Z,188.00
2023-03-29T05:41:04.471Z,200.00
2023-03-29T05:42:04.653Z,200.00
2023-03-29T05:43:04.974Z,224.00
2023-03-29T05:44:05.297Z,236.00
2023-03-29T05:45:05.587Z,244.00
2023-03-29T05:46:05.962Z,252.00
2023-03-29T05:47:06.227Z,260.00
2023-03-29T05:48:06.552Z,272.00
2023-03-29T05:49:06.864Z,280.00
2023-03-29T05:50:07.156Z,312.00
2023-03-29T05:51:07.486Z,324.00
2023-03-29T05:52:07.765Z,356.00
2023-03-29T05:53:08.049Z,372.00
2023-03-29T05:54:08.388Z,352.00
2023-03-29T05:55:08.700Z,372.00
2023-03-29T05:56:09.019Z,396.00
2023-03-29T05:57:09.370Z,424.00
2023-03-29T05:58:09.586Z,448.00
2023-03-29T05:59:09.900Z,492.00
2023-03-29T06:00:10.221Z,508.00
2023-03-29T06:01:10.486Z,512.00
2023-03-29T06:02:10.920Z,524.00
2023-03-29T06:03:19.972Z,516.00
2023-03-29T06:04:12.396Z,476.00
2023-03-29T06:05:11.588Z,464.00
2023-03-29T06:06:11.882Z,456.00
2023-03-29T06:07:12.202Z,480.00
2023-03-29T06:08:12.496Z,532.00
2023-03-29T06:09:12.803Z,548.00
2023-03-29T06:10:13.103Z,588.00
2023-03-29T06:11:13.462Z,600.00
2023-03-29T06:12:13.727Z,608.00
2023-03-29T06:13:14.032Z,628.00
2023-03-29T06:14:14.344Z,672.00
2023-03-29T06:15:14.645Z,688.00
2023-03-29T06:16:14.930Z,740.00
2023-03-29T06:17:15.391Z,700.00
2023-03-29T06:18:15.577Z,684.00
2023-03-29T06:19:15.890Z,668.00
2023-03-29T06:20:16.163Z,680.00
2023-03-29T06:21:17.332Z,704.00
2023-03-29T06:22:16.811Z,692.00
2023-03-29T06:23:17.108Z,664.00
2023-03-29T06:24:17.484Z,684.00
2023-03-29T06:25:17.694Z,656.00
2023-03-29T06:26:17.982Z,632.00
2023-03-29T06:27:18.276Z,616.00
2023-03-29T06:28:18.589Z,756.00
2023-03-29T06:29:18.869Z,824.00
2023-03-29T06:30:19.193Z,836.00
2023-03-29T06:31:19.557Z,824.00
2023-03-29T06:32:19.827Z,804.00
2023-03-29T06:33:20.227Z,788.00
2023-03-29T06:34:20.464Z,776.00
2023-03-29T06:35:20.761Z,852.00
2023-03-29T06:36:21.078Z,856.00
2023-03-29T06:37:21.435Z,976.00
2023-03-29T06:38:21.734Z,1068.00
2023-03-29T06:39:22.004Z,1220.00
2023-03-29T06:40:22.356Z,1320.00
2023-03-29T06:41:22.654Z,1420.00
2023-03-29T06:42:23.012Z,1436.00
2023-03-29T06:43:23.306Z,1480.00
2023-03-29T06:44:23.649Z,1436.00
2023-03-29T06:45:24.761Z,1460.00
2023-03-29T06:46:24.283Z,1608.00
2023-03-29T06:47:24.599Z,1628.00
2023-03-29T06:48:24.902Z,1568.00
2023-03-29T06:49:25.228Z,1476.00
2023-03-29T06:50:25.548Z,1400.00
2023-03-29T06:51:25.861Z,1532.00
2023-03-29T06:52:26.205Z,1612.00
2023-03-29T06:53:26.495Z,1588.00
2023-03-29T06:54:26.816Z,1536.00
2023-03-29T06:55:27.160Z,1616.00
2023-03-29T06:56:27.337Z,1792.00
2023-03-29T06:57:27.816Z,2152.00
2023-03-29T06:58:27.994Z,2156.00
2023-03-29T06:59:28.404Z,2040.00
2023-03-29T07:00:28.677Z,1780.00
2023-03-29T07:01:29.173Z,1648.00
2023-03-29T07:02:29.369Z,1564.00
2023-03-29T07:03:29.608Z,1492.00
2023-03-29T07:04:30.043Z,1472.00
2023-03-29T07:05:30.224Z,1364.00
2023-03-29T07:06:30.504Z,1352.00
2023-03-29T07:07:30.855Z,1324.00
2023-03-29T07:08:31.555Z,1404.00
2023-03-29T07:09:31.418Z,1472.00
2023-03-29T07:10:31.784Z,1472.00
2023-03-29T07:11:32.033Z,1340.00
2023-03-29T07:12:32.381Z,1260.00
2023-03-29T07:13:32.749Z,1152.00
2023-03-29T07:14:34.013Z,1124.00
2023-03-29T07:15:33.345Z,1112.00
2023-03-29T07:16:33.751Z,1120.00
2023-03-29T07:17:33.868Z,1140.00
2023-03-29T07:18:34.183Z,1036.00
2023-03-29T07:19:34.482Z,1008.00
2023-03-29T07:20:34.832Z,1032.00
2023-03-29T07:21:36.661Z,1156.00
2023-03-29T07:22:35.408Z,1188.00
2023-03-29T07:23:35.742Z,1184.00
2023-03-29T07:24:36.009Z,1228.00
2023-03-29T07:25:36.356Z,1444.00
2023-03-29T07:26:36.679Z,1480.00
2023-03-29T07:27:37.029Z,1552.00
2023-03-29T07:28:37.369Z,1896.00
2023-03-29T07:29:37.637Z,2152.00
2023-03-29T07:30:37.909Z,2372.00
2023-03-29T07:31:38.241Z,2700.00
2023-03-29T07:32:38.655Z,2764.00
2023-03-29T07:33:38.943Z,2660.00
2023-03-29T07:34:39.088Z,2564.00
2023-03-29T07:35:39.541Z,2588.00
2023-03-29T07:36:39.730Z,2720.00
2023-03-29T07:37:40.046Z,2732.00
2023-03-29T07:38:40.326Z,2740.00
2023-03-29T07:39:40.691Z,2764.00
2023-03-29T07:40:40.992Z,2940.00
2023-03-29T07:41:41.357Z,3152.00
2023-03-29T07:42:41.534Z,3488.00
2023-03-29T07:43:41.880Z,3740.00
2023-03-29T07:44:42.206Z,4112.00
2023-03-29T07:45:42.574Z,4452.00
2023-03-29T07:46:42.900Z,4196.00
2023-03-29T07:47:43.149Z,4124.00
2023-03-29T07:48:43.482Z,4304.00
2023-03-29T07:49:43.803Z,4768.00
2023-03-29T07:50:44.084Z,4392.00
2023-03-29T07:51:44.441Z,4128.00
2023-03-29T07:52:44.803Z,4072.00
2023-03-29T07:53:45.085Z,4424.00
2023-03-29T07:54:45.465Z,4736.00
2023-03-29T07:55:46.997Z,4708.00
2023-03-29T07:56:46.100Z,4568.00
2023-03-29T07:57:46.473Z,4792.00
2023-03-29T07:58:46.857Z,4896.00
2023-03-29T07:59:47.010Z,4960.00
2023-03-29T08:00:47.375Z,4444.00
2023-03-29T08:01:47.719Z,4008.00
2023-03-29T08:02:48.018Z,3708.00
2023-03-29T08:03:48.341Z,3632.00
2023-03-29T08:04:48.470Z,3676.00
2023-03-29T08:05:48.690Z,4044.00
2023-03-29T08:06:48.920Z,4724.00
2023-03-29T08:07:49.258Z,5464.00
2023-03-29T08:08:49.654Z,5300.00
2023-03-29T08:09:49.754Z,5100.00
2023-03-29T08:10:50.096Z,5044.00
2023-03-29T08:11:50.298Z,4968.00
2023-03-29T08:12:50.649Z,4556.00
2023-03-29T08:13:51.046Z,4732.00
2023-03-29T08:14:51.330Z,4896.00
2023-03-29T08:15:51.532Z,5048.00
2023-03-29T08:16:51.912Z,5132.00
2023-03-29T08:17:52.218Z,5380.00
2023-03-29T08:18:52.620Z,5952.00
2023-03-29T08:19:52.924Z,5816.00
2023-03-29T08:20:53.174Z,6220.00
2023-03-29T08:22:00.498Z,7364.00
2023-03-29T08:22:54.121Z,6300.00
2023-03-29T08:23:54.058Z,5512.00
2023-03-29T08:24:54.402Z,5220.00
2023-03-29T08:25:54.752Z,5420.00
2023-03-29T08:26:55.080Z,5952.00
2023-03-29T08:27:55.364Z,5484.00
2023-03-29T08:28:55.711Z,4952.00
2023-03-29T08:29:56.012Z,4992.00
2023-03-29T08:30:56.392Z,5016.00
2023-03-29T08:31:56.684Z,5164.00
2023-03-29T08:32:57.239Z,5200.00
2023-03-29T08:33:57.340Z,4752.00
2023-03-29T08:34:57.637Z,3864.00
2023-03-29T08:36:05.014Z,3280.00
2023-03-29T08:36:58.214Z,2672.00
2023-03-29T08:37:58.530Z,2376.00
2023-03-29T08:38:58.880Z,2168.00
2023-03-29T08:39:59.051Z,2020.00
2023-03-29T08:40:59.422Z,2076.00
2023-03-29T08:41:59.586Z,2400.00
2023-03-29T08:42:59.913Z,2936.00
2023-03-29T08:44:00.211Z,3488.00
2023-03-29T08:45:00.527Z,3516.00
2023-03-29T08:46:00.883Z,3252.00
2023-03-29T08:47:01.233Z,3008.00
2023-03-29T08:48:01.586Z,2540.00
2023-03-29T08:49:01.717Z,2280.00
2023-03-29T08:50:02.024Z,2136.00
2023-03-29T08:51:02.612Z,1968.00
2023-03-29T08:52:02.653Z,1928.00
2023-03-29T08:53:02.936Z,1976.00
2023-03-29T08:54:03.236Z,2180.00
2023-03-29T08:55:03.530Z,2712.00
2023-03-29T08:56:03.834Z,2792.00
2023-03-29T08:57:04.258Z,2792.00
2023-03-29T08:58:04.489Z,2684.00
2023-03-29T08:59:18.722Z,2604.00
2023-03-29T09:00:05.150Z,2832.00
2023-03-29T09:01:05.613Z,2760.00
2023-03-29T09:02:05.706Z,2600.00
2023-03-29T09:03:06.074Z,2432.00
2023-03-29T09:04:06.294Z,2356.00
2023-03-29T09:05:06.633Z,2384.00
2023-03-29T09:06:06.848Z,2556.00
2023-03-29T09:07:07.204Z,2860.00
2023-03-29T09:08:07.482Z,3148.00
2023-03-29T09:09:07.813Z,3224.00
2023-03-29T09:10:08.140Z,3456.00
2023-03-29T09:11:08.388Z,3612.00
2023-03-29T09:12:08.680Z,3404.00
2023-03-29T09:13:09.214Z,3444.00
2023-03-29T09:14:09.398Z,3380.00
2023-03-29T09:15:09.808Z,3412.00
2023-03-29T09:16:10.114Z,3264.00
2023-03-29T09:17:14.482Z,3336.00
2023-03-29T09:18:10.671Z,3504.00
2023-03-29T09:19:10.946Z,3508.00
2023-03-29T09:20:11.284Z,3200.00
2023-03-29T09:21:11.472Z,3008.00
2023-03-29T09:22:11.859Z,3076.00
2023-03-29T09:23:12.154Z,3340.00
2023-03-29T09:24:12.409Z,3332.00
2023-03-29T09:25:12.709Z,3444.00
2023-03-29T09:26:12.950Z,3260.00
2023-03-29T09:27:13.195Z,3188.00
2023-03-29T09:28:13.527Z,3184.00
2023-03-29T09:29:13.787Z,3056.00
